Time;durP1;ratioP1;P1;durP2;ratioP2;P2;SDS_P1;SDS_P2;PMS_P1;PMS_P2;Temp;Humidity;BMP_temperature;BMP_pressure;BME280_temperature;BME280_humidity;BME280_pressure;Samples;Min_cycle;Max_cycle;Signal;HPM_P1;HPM_P2
2021/07/29 00:01:01;;;;;;;39.15;12.82;;;;;;;21.83;100.00;100698.88;1646605;87;20975;-81
2021/07/29 00:03:27;;;;;;;30.70;12.73;;;;;;;21.82;100.00;100690.38;1687708;83;20988;-81
2021/07/29 00:05:53;;;;;;;30.85;13.40;;;;;;;21.84;100.00;100689.48;1720861;83;21125;-80
2021/07/29 00:08:20;;;;;;;33.70;13.00;;;;;;;21.85;100.00;100689.72;1720863;83;20977;-81
2021/07/29 00:10:48;;;;;;;29.57;11.88;;;;;;;21.88;100.00;100684.93;1720913;83;21070;-81
2021/07/29 00:13:15;;;;;;;41.00;13.93;;;;;;;21.91;100.00;100693.33;1695609;81;21575;-81
2021/07/29 00:15:41;;;;;;;28.67;13.10;;;;;;;21.92;100.00;100687.27;1751294;82;21012;-81
2021/07/29 00:20:33;;;;;;;29.30;12.78;;;;;;;21.92;100.00;100683.14;1751388;82;20881;-81
2021/07/29 00:23:01;;;;;;;34.85;13.55;;;;;;;21.90;100.00;100671.69;1751388;81;21039;-82
2021/07/29 00:25:29;;;;;;;27.37;12.33;;;;;;;21.95;100.00;100680.53;1751066;81;21087;-81
2021/07/29 00:27:56;;;;;;;38.02;13.80;;;;;;;21.93;100.00;100682.00;1751145;81;21063;-82
2021/07/29 00:30:24;;;;;;;35.70;13.70;;;;;;;21.91;100.00;100678.77;1751260;81;21139;-80
2021/07/29 00:32:56;;;;;;;38.38;13.75;;;;;;;21.90;100.00;100678.55;1751148;82;21028;-82
2021/07/29 00:35:23;;;;;;;33.18;13.25;;;;;;;21.85;100.00;100680.11;1751431;81;21191;-81
2021/07/29 00:37:55;;;;;;;31.27;13.60;;;;;;;21.77;100.00;100677.68;1751136;82;20957;-81
2021/07/29 00:40:20;;;;;;;38.70;13.20;;;;;;;21.72;100.00;100675.92;1750957;81;21028;-82
2021/07/29 00:42:47;;;;;;;30.55;12.73;;;;;;;21.70;100.00;100675.45;1751292;81;21156;-81
2021/07/29 00:45:13;;;;;;;33.10;13.72;;;;;;;21.65;100.00;100674.29;1751031;82;21027;-81
2021/07/29 00:47:43;;;;;;;30.72;13.68;;;;;;;21.61;100.00;100669.79;1751375;81;21706;-81
2021/07/29 00:50:14;;;;;;;39.15;13.03;;;;;;;21.59;100.00;100667.39;1751267;81;21501;-81
2021/07/29 00:52:40;;;;;;;38.42;13.72;;;;;;;21.55;100.00;100667.80;1751188;81;21009;-81
2021/07/29 00:55:08;;;;;;;30.77;13.65;;;;;;;21.50;100.00;100666.62;1751311;81;21079;-82
2021/07/29 00:57:34;;;;;;;31.77;13.93;;;;;;;21.45;100.00;100669.00;1750970;82;21036;-81
2021/07/29 01:00:01;;;;;;;32.45;13.68;;;;;;;21.38;100.00;100666.53;1751341;81;21083;-81
2021/07/29 01:02:28;;;;;;;37.28;13.80;;;;;;;21.35;100.00;100662.48;1751159;82;21031;-81
2021/07/29 01:04:55;;;;;;;30.02;13.65;;;;;;;21.31;100.00;100660.97;1751095;82;21550;-81
2021/07/29 01:07:21;;;;;;;30.50;13.35;;;;;;;21.27;100.00;100653.18;1750988;81;22014;-82
2021/07/29 01:09:47;;;;;;;29.80;13.30;;;;;;;21.25;100.00;100651.33;1751236;82;20997;-82
2021/07/29 01:12:13;;;;;;;41.48;13.85;;;;;;;21.24;100.00;100645.62;1751241;81;20893;-79
2021/07/29 01:14:39;;;;;;;34.05;13.20;;;;;;;21.24;100.00;100647.56;1752582;81;20936;-81
2021/07/29 01:17:05;;;;;;;38.42;14.73;;;;;;;21.21;100.00;100649.02;1753392;81;20874;-82
2021/07/29 01:19:31;;;;;;;35.85;14.45;;;;;;;21.18;100.00;100643.38;1753258;81;21912;-81
2021/07/29 01:21:58;;;;;;;31.48;12.70;;;;;;;21.15;100.00;100642.12;1752980;81;21555;-81
2021/07/29 01:24:26;;;;;;;29.92;13.00;;;;;;;21.09;100.00;100636.59;1753132;81;21064;-80
2021/07/29 01:26:53;;;;;;;35.13;14.00;;;;;;;21.07;100.00;100647.88;1753033;81;21496;-81
2021/07/29 01:29:19;;;;;;;33.08;13.28;;;;;;;21.05;100.00;100651.50;1752077;81;21133;-82
2021/07/29 01:31:45;;;;;;;39.60;14.38;;;;;;;21.00;100.00;100650.33;1753151;81;21074;-82
2021/07/29 01:34:11;;;;;;;42.20;14.33;;;;;;;20.99;100.00;100642.42;1753226;81;21059;-81
2021/07/29 01:36:37;;;;;;;32.90;14.03;;;;;;;21.00;100.00;100644.02;1753441;81;21452;-82
2021/07/29 01:39:04;;;;;;;40.73;14.80;;;;;;;21.01;100.00;100647.82;1753248;81;20957;-82
2021/07/29 01:41:30;;;;;;;34.95;14.38;;;;;;;21.01;100.00;100643.70;1753138;81;21057;-81
2021/07/29 01:43:56;;;;;;;40.25;14.70;;;;;;;21.02;100.00;100645.30;1753335;81;21485;-85
2021/07/29 01:46:22;;;;;;;39.00;14.43;;;;;;;21.01;100.00;100639.59;1753302;81;20981;-81
2021/07/29 01:48:48;;;;;;;37.95;14.73;;;;;;;21.01;100.00;100641.54;1753453;81;21032;-81
2021/07/29 01:51:14;;;;;;;33.88;14.28;;;;;;;20.96;100.00;100639.77;1753364;81;20869;-81
2021/07/29 01:53:40;;;;;;;39.00;13.95;;;;;;;20.96;100.00;100642.52;1753337;81;21661;-80
2021/07/29 01:56:10;;;;;;;41.58;14.85;;;;;;;20.97;100.00;100648.80;1753210;81;21195;-78
2021/07/29 01:58:36;;;;;;;47.83;16.07;;;;;;;20.97;100.00;100633.72;1753125;81;21047;-78
2021/07/29 02:01:02;;;;;;;31.55;14.53;;;;;;;21.00;100.00;100644.02;1753202;81;21495;-81
2021/07/29 02:03:28;;;;;;;37.88;14.45;;;;;;;20.99;100.00;100636.38;1747984;81;21004;-79
2021/07/29 02:05:54;;;;;;;38.10;14.90;;;;;;;21.01;100.00;100651.13;1753479;81;20948;-81
2021/07/29 02:08:19;;;;;;;42.05;15.83;;;;;;;21.02;100.00;100650.78;1752947;81;20993;-80
2021/07/29 02:10:45;;;;;;;36.70;16.37;;;;;;;21.02;100.00;100650.78;1753368;81;20853;-81
2021/07/29 02:13:11;;;;;;;38.17;15.75;;;;;;;21.02;100.00;100659.58;1753104;81;20976;-81
2021/07/29 02:15:37;;;;;;;34.92;14.35;;;;;;;21.01;100.00;100654.67;1753283;81;20861;-81
2021/07/29 02:18:03;;;;;;;36.98;15.13;;;;;;;21.00;100.00;100650.87;1753253;81;21674;-81
2021/07/29 02:20:30;;;;;;;36.83;15.98;;;;;;;21.03;100.00;100658.44;1753186;81;21061;-81
2021/07/29 02:22:56;;;;;;;42.98;17.12;;;;;;;21.03;100.00;100657.06;1753049;81;20972;-80
2021/07/29 02:25:22;;;;;;;35.80;15.58;;;;;;;21.04;100.00;100650.47;1753248;81;21765;-81
2021/07/29 02:27:48;;;;;;;38.50;16.30;;;;;;;21.03;100.00;100652.95;1753231;81;21113;-81
2021/07/29 02:30:15;;;;;;;34.25;15.58;;;;;;;21.02;100.00;100648.62;1753251;81;21524;-80
2021/07/29 02:32:41;;;;;;;32.42;16.48;;;;;;;21.02;100.00;100655.47;1753035;81;21119;-80
2021/07/29 02:35:08;;;;;;;34.98;16.27;;;;;;;21.03;100.00;100652.95;1753282;81;20973;-82
2021/07/29 02:37:34;;;;;;;38.67;17.37;;;;;;;21.02;100.00;100663.69;1753176;81;21004;-81
2021/07/29 02:40:00;;;;;;;35.13;16.40;;;;;;;21.06;100.00;100666.00;1753215;81;20873;-80
2021/07/29 02:42:27;;;;;;;37.75;16.67;;;;;;;21.10;100.00;100666.39;1753255;81;21562;-82
2021/07/29 02:44:53;;;;;;;42.15;16.50;;;;;;;21.15;100.00;100666.80;1752806;81;21157;-80
2021/07/29 02:47:19;;;;;;;36.65;15.80;;;;;;;21.20;100.00;100665.21;1753260;81;21460;-80
2021/07/29 02:49:45;;;;;;;36.08;15.95;;;;;;;21.28;100.00;100669.86;1753261;81;20960;-81
2021/07/29 02:52:11;;;;;;;36.73;14.40;;;;;;;21.35;100.00;100665.22;1753170;81;21536;-80
2021/07/29 02:54:37;;;;;;;37.03;14.63;;;;;;;21.47;100.00;100662.62;1753433;81;20869;-80
2021/07/29 02:57:03;;;;;;;29.30;14.38;;;;;;;21.58;100.00;100663.02;1753279;81;21974;-80
2021/07/29 02:59:29;;;;;;;41.20;16.40;;;;;;;21.64;100.00;100659.52;1753068;81;21000;-81
2021/07/29 03:01:55;;;;;;;32.10;14.47;;;;;;;21.71;100.00;100657.07;1753287;81;20956;-80
2021/07/29 03:04:20;;;;;;;32.83;14.25;;;;;;;21.83;100.00;100659.88;1753266;81;20912;-81
2021/07/29 03:06:47;;;;;;;37.48;14.23;;;;;;;21.99;100.00;100665.56;1753118;81;20968;-80
2021/07/29 03:09:14;;;;;;;35.13;13.80;;;;;;;22.10;100.00;100658.53;1753296;81;21130;-80
2021/07/29 03:11:40;;;;;;;37.78;14.60;;;;;;;22.22;100.00;100659.19;1752737;81;20981;-80
2021/07/29 03:14:06;;;;;;;42.45;13.85;;;;;;;22.38;100.00;100662.92;1753037;81;21023;-81
2021/07/29 03:16:32;;;;;;;33.88;14.85;;;;;;;22.53;100.00;100666.98;1753187;81;20960;-81
2021/07/29 03:19:01;;;;;;;36.80;14.63;;;;;;;22.68;100.00;100664.95;1753248;81;20996;-80
2021/07/29 03:21:26;;;;;;;39.90;14.68;;;;;;;22.87;100.00;100666.35;1752838;81;21441;-81
2021/07/29 03:23:52;;;;;;;40.60;13.68;;;;;;;23.07;100.00;100668.24;1753171;81;20889;-81
2021/07/29 03:26:18;;;;;;;35.45;13.78;;;;;;;23.33;100.00;100668.48;1753227;81;21709;-81
2021/07/29 03:28:43;;;;;;;31.52;13.93;;;;;;;23.82;100.00;100671.77;1753455;81;20885;-81
2021/07/29 03:31:09;;;;;;;35.80;13.68;;;;;;;24.36;100.00;100666.66;1753209;81;20897;-81
2021/07/29 03:33:37;;;;;;;32.83;14.23;;;;;;;24.89;100.00;100670.05;1745990;81;21170;-80
2021/07/29 03:36:04;;;;;;;36.88;13.32;;;;;;;25.20;100.00;100664.91;1752803;81;21542;-80
2021/07/29 03:38:30;;;;;;;46.08;13.98;;;;;;;25.55;100.00;100667.70;1752913;81;21606;-81
2021/07/29 03:40:56;;;;;;;47.33;13.70;;;;;;;25.99;100.00;100670.27;1753266;81;20885;-78
2021/07/29 03:43:22;;;;;;;33.70;13.78;;;;;;;26.25;100.00;100665.47;1753239;81;20897;-80
2021/07/29 03:45:48;;;;;;;27.60;13.00;;;;;;;26.73;100.00;100666.00;1721795;81;21125;-80
2021/07/29 03:48:14;;;;;;;37.23;12.40;;;;;;;27.24;100.00;100664.33;1753115;81;20964;-81
2021/07/29 03:50:40;;;;;;;33.48;13.55;;;;;;;27.77;100.00;100665.69;1752920;81;20897;-81
2021/07/29 03:53:06;;;;;;;26.65;12.68;;;;;;;28.19;100.00;100671.58;1753428;81;20960;-80
2021/07/29 03:55:32;;;;;;;34.38;12.28;;;;;;;28.75;100.00;100665.66;1753065;81;21619;-80
2021/07/29 03:57:59;;;;;;;32.15;12.35;;;;;;;29.43;100.00;100670.38;1753198;81;21259;-78
2021/07/29 04:00:26;;;;;;;29.05;11.60;;;;;;;29.93;100.00;100660.95;1753121;81;21015;-85
2021/07/29 04:02:51;;;;;;;27.58;12.68;;;;;;;30.31;100.00;100663.70;1753052;81;21495;-84
2021/07/29 04:05:17;;;;;;;40.20;13.28;;;;;;;30.73;100.00;100660.00;1753071;81;21131;-81
2021/07/29 04:07:43;;;;;;;27.17;12.23;;;;;;;31.07;100.00;100670.79;1753105;81;20989;-80
2021/07/29 04:10:10;;;;;;;30.97;12.37;;;;;;;31.49;100.00;100658.81;1753116;81;21812;-81
2021/07/29 04:12:37;;;;;;;26.85;12.98;;;;;;;31.79;100.00;100657.53;1753041;81;20993;-81
2021/07/29 04:15:04;;;;;;;40.08;12.25;;;;;;;32.21;97.29;100655.77;1753050;80;21135;-81
2021/07/29 04:17:30;;;;;;;31.87;12.23;;;;;;;32.52;94.75;100666.58;1752994;80;20979;-79
2021/07/29 04:19:58;;;;;;;32.83;11.40;;;;;;;32.85;90.68;100670.72;1752872;80;21051;-80
2021/07/29 04:22:24;;;;;;;31.73;11.28;;;;;;;33.17;85.27;100671.09;1780073;80;21468;-81
2021/07/29 04:27:23;;;;;;;33.85;11.20;;;;;;;33.86;78.05;100669.20;1672550;84;21067;-81
2021/07/29 04:29:51;;;;;;;24.67;11.00;;;;;;;34.36;76.68;100667.95;1677307;85;20912;-81
2021/07/29 04:32:17;;;;;;;26.55;10.60;;;;;;;34.69;68.27;100667.50;1682865;85;21527;-82
2021/07/29 04:34:43;;;;;;;25.95;11.25;;;;;;;34.94;65.16;100672.06;1660468;85;21037;-81
2021/07/29 04:37:08;;;;;;;28.80;10.90;;;;;;;35.16;65.34;100674.55;1653304;86;21039;-81
2021/07/29 04:39:37;;;;;;;25.68;10.85;;;;;;;35.32;62.73;100666.23;1653158;85;20900;-82
2021/07/29 04:42:04;;;;;;;29.23;10.08;;;;;;;35.44;59.78;100674.62;1677686;85;21518;-79
2021/07/29 04:44:29;;;;;;;29.50;10.93;;;;;;;35.60;60.15;100673.34;1677930;85;21011;-81
2021/07/29 04:46:55;;;;;;;22.42;10.00;;;;;;;35.98;58.83;100662.38;1674132;85;21005;-81
2021/07/29 04:49:22;;;;;;;26.90;10.88;;;;;;;36.40;56.71;100656.44;1677997;85;20888;-79
2021/07/29 04:51:48;;;;;;;20.68;10.18;;;;;;;36.79;56.23;100655.52;1677793;85;21053;-80
2021/07/29 04:54:15;;;;;;;31.20;10.38;;;;;;;37.26;53.35;100649.50;1677912;85;20880;-81
2021/07/29 04:56:41;;;;;;;24.87;10.40;;;;;;;37.38;50.70;100649.38;1699865;83;21163;-82
2021/07/29 04:59:07;;;;;;;24.95;9.48;;;;;;;37.34;49.20;100648.70;1702198;83;21273;-78
2021/07/29 05:01:38;;;;;;;26.82;10.18;;;;;;;37.54;49.96;100647.19;1717832;83;21599;-82
2021/07/29 05:04:05;;;;;;;26.90;9.80;;;;;;;37.90;48.60;100646.92;1728371;83;21044;-84
2021/07/29 05:06:34;;;;;;;22.55;9.75;;;;;;;38.26;47.05;100647.27;1727301;82;21069;-80
2021/07/29 05:09:00;;;;;;;29.52;10.50;;;;;;;38.50;45.67;100644.91;1729341;82;21614;-81
2021/07/29 05:11:25;;;;;;;25.90;10.72;;;;;;;38.72;44.54;100645.02;1729664;83;21009;-81
2021/07/29 05:13:54;;;;;;;26.40;10.58;;;;;;;38.96;43.46;100643.23;1704751;83;21167;-81
2021/07/29 05:16:20;;;;;;;27.52;9.73;;;;;;;39.81;42.21;100637.98;1729985;83;21008;-81
2021/07/29 05:18:46;;;;;;;24.25;9.83;;;;;;;39.81;42.21;100637.98;1729807;82;21118;-81
2021/07/29 05:21:12;;;;;;;23.73;10.18;;;;;;;40.06;41.13;100639.83;1729421;82;20912;-81
2021/07/29 05:23:38;;;;;;;22.02;10.53;;;;;;;39.41;39.92;100652.73;1737299;81;20916;-80
2021/07/29 05:26:03;;;;;;;26.42;10.82;;;;;;;38.86;41.35;100645.19;1753252;81;20875;-80
2021/07/29 05:28:29;;;;;;;21.25;9.98;;;;;;;38.88;42.64;100648.32;1752829;81;20959;-81
2021/07/29 05:30:55;;;;;;;20.40;10.58;;;;;;;39.33;42.29;100645.80;1753067;81;20985;-81
2021/07/29 05:33:21;;;;;;;29.25;10.78;;;;;;;39.91;41.23;100637.41;1752732;81;21006;-80
2021/07/29 05:35:47;;;;;;;22.40;11.25;;;;;;;40.31;39.96;100639.51;1752786;81;21035;-81
2021/07/29 05:38:13;;;;;;;22.25;11.30;;;;;;;40.59;40.00;100639.76;1753051;81;20864;-80
2021/07/29 05:40:39;;;;;;;31.05;10.80;;;;;;;40.83;38.98;100637.79;1748006;81;20872;-81
2021/07/29 05:43:05;;;;;;;29.32;11.18;;;;;;;41.13;38.92;100631.08;1752939;81;20946;-81
2021/07/29 05:45:34;;;;;;;30.75;11.75;;;;;;;41.47;38.29;100634.21;1753086;81;21007;-81
2021/07/29 05:48:00;;;;;;;26.25;11.18;;;;;;;41.61;37.61;100638.44;1752785;81;22059;-78
2021/07/29 05:50:26;;;;;;;24.23;11.12;;;;;;;41.90;37.24;100639.34;1752976;81;21033;-82
2021/07/29 05:52:52;;;;;;;24.92;11.53;;;;;;;42.02;35.65;100634.73;1752917;81;20970;-80
2021/07/29 05:55:18;;;;;;;28.90;11.38;;;;;;;42.13;36.08;100634.38;1728155;80;20867;-81
2021/07/29 05:57:52;;;;;;;25.97;11.70;;;;;;;42.58;35.57;100634.00;1759502;80;21047;-81
2021/07/29 06:00:40;;;;;;;;;;;;;;;;;;;;;
2021/07/29 06:03:01;;;;;;;32.17;11.38;;;;;;;43.43;34.30;100632.28;1699044;83;21103;-80
2021/07/29 06:05:30;;;;;;;23.20;11.15;;;;;;;43.87;33.20;100634.36;1707567;83;21097;-80
2021/07/29 06:07:56;;;;;;;31.37;12.23;;;;;;;44.03;33.20;100628.82;1701578;83;21070;-83
2021/07/29 06:10:22;;;;;;;25.12;10.85;;;;;;;44.37;32.46;100630.78;1702253;83;21083;-80
2021/07/29 06:12:48;;;;;;;26.82;10.85;;;;;;;44.50;32.26;100627.59;1707075;83;20991;-81
2021/07/29 06:15:14;;;;;;;22.50;10.23;;;;;;;44.80;31.89;100622.58;1694898;83;21673;-80
2021/07/29 06:17:43;;;;;;;24.50;10.48;;;;;;;45.09;31.20;100613.08;1693981;84;20900;-81
2021/07/29 06:20:08;;;;;;;23.92;9.80;;;;;;;45.24;30.60;100618.70;1698017;84;21584;-81
2021/07/29 06:22:35;;;;;;;20.85;10.15;;;;;;;45.31;30.63;100617.63;1689325;84;21031;-81
2021/07/29 06:27:29;;;;;;;22.90;10.90;;;;;;;45.87;29.73;100613.09;1641885;87;21078;-81
2021/07/29 06:29:55;;;;;;;17.17;10.28;;;;;;;46.16;29.37;100606.98;1642288;87;20994;-80
2021/07/29 06:32:21;;;;;;;27.07;10.68;;;;;;;46.43;29.00;100611.30;1632048;87;20912;-80
2021/07/29 06:34:47;;;;;;;20.97;10.18;;;;;;;46.42;28.63;100604.05;1648219;87;21591;-80
2021/07/29 06:37:13;;;;;;;25.68;11.05;;;;;;;46.63;28.32;100598.30;1648023;87;21884;-80
2021/07/29 06:39:39;;;;;;;24.52;9.35;;;;;;;46.63;27.66;100603.23;1648227;87;20987;-81
2021/07/29 06:42:05;;;;;;;24.80;10.03;;;;;;;46.80;27.84;100597.59;1648072;87;20911;-84
2021/07/29 06:44:31;;;;;;;23.85;9.50;;;;;;;46.98;27.51;100597.77;1648133;87;20919;-80
2021/07/29 06:46:57;;;;;;;19.02;8.98;;;;;;;47.16;27.31;100607.98;1652314;86;21089;-81
2021/07/29 06:49:31;;;;;;;24.57;10.40;;;;;;;47.35;27.42;100601.89;1633849;86;21109;-80
2021/07/29 06:51:57;;;;;;;21.45;10.25;;;;;;;47.54;26.52;100602.20;1652424;86;21691;-80
2021/07/29 06:54:23;;;;;;;17.92;9.68;;;;;;;47.43;26.44;100597.91;1656176;86;21058;-80
2021/07/29 06:56:49;;;;;;;21.68;8.80;;;;;;;47.68;26.21;100598.28;1656275;86;21029;-81
2021/07/29 06:59:15;;;;;;;13.25;9.60;;;;;;;48.02;26.46;100603.23;1656142;86;20880;-81
2021/07/29 07:01:41;;;;;;;20.80;10.32;;;;;;;48.48;25.48;100605.47;1656269;86;21951;-80
2021/07/29 07:04:07;;;;;;;15.55;9.78;;;;;;;48.49;25.28;100609.87;1655942;86;20910;-79
2021/07/29 07:06:36;;;;;;;16.93;9.93;;;;;;;48.47;25.74;100604.55;1656137;86;20998;-80
2021/07/29 07:09:01;;;;;;;20.43;10.28;;;;;;;48.68;25.73;100607.20;1660325;86;21017;-80
2021/07/29 07:11:27;;;;;;;16.90;9.20;;;;;;;48.89;25.43;100590.47;1663309;86;20886;-81
2021/07/29 07:13:53;;;;;;;19.67;9.33;;;;;;;49.02;24.78;100589.89;1663345;86;20994;-80
2021/07/29 07:16:19;;;;;;;20.32;9.58;;;;;;;49.04;24.85;100591.58;1680614;84;21119;-81
2021/07/29 07:18:45;;;;;;;18.25;10.08;;;;;;;48.89;24.29;100589.04;1683593;85;21049;-81
2021/07/29 07:21:12;;;;;;;20.05;9.95;;;;;;;48.98;24.65;100585.89;1683972;85;21066;-81
2021/07/29 07:23:40;;;;;;;22.35;10.18;;;;;;;49.24;24.70;100580.38;1702581;80;21034;-81
2021/07/29 07:26:16;;;;;;;21.23;10.03;;;;;;;49.37;24.17;100582.64;1781380;80;21862;-81
2021/07/29 07:28:42;;;;;;;24.37;10.88;;;;;;;49.41;24.76;100578.82;1711493;81;21465;-80
2021/07/29 07:31:07;;;;;;;16.37;9.38;;;;;;;49.62;24.31;100586.34;1709633;83;20904;-80
2021/07/29 07:33:33;;;;;;;18.75;10.28;;;;;;;49.71;24.47;100578.17;1709362;83;21601;-81
2021/07/29 07:35:59;;;;;;;24.20;10.15;;;;;;;49.73;24.37;100579.08;1709096;82;21005;-78
2021/07/29 07:38:25;;;;;;;17.50;10.65;;;;;;;49.81;24.00;100574.31;1709200;82;21972;-81
2021/07/29 07:40:51;;;;;;;18.87;10.32;;;;;;;49.77;23.68;100570.95;1709658;83;21489;-81
2021/07/29 07:43:17;;;;;;;33.45;10.98;;;;;;;49.71;24.18;100571.67;1709682;83;20964;-81
2021/07/29 07:45:44;;;;;;;24.45;11.25;;;;;;;49.46;23.74;100573.05;1709425;84;21008;-81
2021/07/29 07:48:10;;;;;;;16.52;10.18;;;;;;;49.22;24.20;100574.43;1685966;83;21065;-81
2021/07/29 07:50:40;;;;;;;22.25;10.53;;;;;;;49.17;24.85;100579.50;1709472;82;21101;-80
2021/07/29 07:53:06;;;;;;;20.90;10.50;;;;;;;49.45;24.53;100574.37;1709302;84;21574;-85
2021/07/29 07:55:35;;;;;;;24.20;11.50;;;;;;;49.68;24.10;100576.37;1709780;83;21042;-80
2021/07/29 07:58:01;;;;;;;23.87;11.00;;;;;;;49.68;24.27;100569.88;1709554;84;21004;-80
2021/07/29 08:00:27;;;;;;;22.25;10.98;;;;;;;49.42;24.15;100572.58;1709988;83;20952;-78
2021/07/29 08:02:53;;;;;;;19.02;9.18;;;;;;;49.06;24.34;100567.47;1709851;83;21110;-80
2021/07/29 08:05:19;;;;;;;17.57;9.63;;;;;;;49.20;24.52;100566.98;1709793;83;20864;-80
2021/07/29 08:07:45;;;;;;;34.92;10.25;;;;;;;49.61;24.07;100564.75;1709700;83;20857;-80
2021/07/29 08:10:11;;;;;;;21.73;9.90;;;;;;;49.70;23.91;100568.69;1709727;83;20884;-80
2021/07/29 08:12:38;;;;;;;20.40;10.05;;;;;;;49.72;23.85;100568.28;1709502;84;21038;-77
2021/07/29 08:15:06;;;;;;;22.58;9.38;;;;;;;49.25;24.53;100563.34;1714207;82;21125;-81
2021/07/29 08:17:32;;;;;;;22.48;9.70;;;;;;;49.39;23.94;100557.89;1699098;81;21637;-80
2021/07/29 08:19:57;;;;;;;21.93;9.33;;;;;;;49.21;24.21;100557.88;1777411;80;20852;-77
2021/07/29 08:22:23;;;;;;;17.07;9.05;;;;;;;49.28;24.49;100557.98;1747889;82;20876;-80
2021/07/29 08:24:49;;;;;;;22.67;9.85;;;;;;;49.76;24.50;100555.08;1777431;80;20935;-79
2021/07/29 08:27:15;;;;;;;20.82;9.35;;;;;;;50.02;24.29;100550.94;1747945;82;21127;-80
2021/07/29 08:29:41;;;;;;;21.07;8.73;;;;;;;50.03;24.23;100542.44;1777203;80;21672;-85
2021/07/29 08:32:09;;;;;;;17.70;9.25;;;;;;;50.08;23.88;100544.48;1745075;82;20990;-81
2021/07/29 08:34:35;;;;;;;18.42;9.60;;;;;;;49.73;24.19;100547.56;1777192;79;21011;-81
2021/07/29 08:37:00;;;;;;;25.40;9.10;;;;;;;49.77;24.29;100544.53;1777436;80;21010;-77
2021/07/29 08:39:26;;;;;;;14.50;9.05;;;;;;;49.82;24.08;100544.33;1747676;82;21159;-80
2021/07/29 08:41:52;;;;;;;15.03;8.80;;;;;;;49.65;23.68;100540.86;1777336;80;21117;-79
2021/07/29 08:44:18;;;;;;;17.12;9.08;;;;;;;49.29;24.01;100545.97;1747946;82;20983;-78
2021/07/29 08:46:48;;;;;;;22.95;8.90;;;;;;;49.04;24.60;100552.27;1777547;80;20904;-80
2021/07/29 08:49:15;;;;;;;22.62;8.15;;;;;;;49.03;24.90;100549.27;1771769;80;21052;-80
2021/07/29 08:51:41;;;;;;;21.87;8.75;;;;;;;49.21;24.76;100546.42;1777405;80;21223;-78
2021/07/29 08:54:11;;;;;;;19.75;7.58;;;;;;;49.20;24.84;100546.94;1790520;79;20995;-80
2021/07/29 08:56:37;;;;;;;13.08;7.50;;;;;;;49.50;24.69;100554.90;1737918;80;21030;-80
2021/07/29 08:59:03;;;;;;;23.18;9.08;;;;;;;49.68;24.41;100556.98;1766358;81;21581;-80
2021/07/29 09:01:53;;;;;;;21.12;8.95;;;;;;;49.57;24.35;100549.29;1761441;81;20916;-78
2021/07/29 09:04:20;;;;;;;21.17;8.98;;;;;;;49.53;24.71;100546.66;1761181;80;21285;-79
2021/07/29 09:07:00;;;;;;;19.42;8.65;;;;;;;49.73;24.21;100550.42;1761332;80;21039;-80
2021/07/29 09:14:53;;;;;;;20.15;7.97;;;;;;;49.41;24.30;100536.63;1613745;87;21073;-81
2021/07/29 09:17:22;;;;;;;19.05;7.35;;;;;;;49.38;24.28;100533.41;1591180;89;21868;-81
2021/07/29 09:19:53;;;;;;;18.05;8.28;;;;;;;49.39;24.18;100539.90;1590979;90;21530;-80
2021/07/29 09:22:30;;;;;;;30.50;7.60;;;;;;;49.21;24.25;100532.11;1591245;90;21070;-81
2021/07/29 09:25:06;;;;;;;21.68;7.72;;;;;;;48.91;24.31;100532.71;1591376;90;21054;-84
2021/07/29 09:27:42;;;;;;;24.77;7.87;;;;;;;48.93;24.11;100530.88;1574688;91;21120;-80
2021/07/29 09:30:16;;;;;;;22.15;7.92;;;;;;;49.07;24.13;100534.69;1574651;91;22034;-80
2021/07/29 09:33:05;;;;;;;17.05;7.97;;;;;;;48.80;24.19;100533.52;1574723;90;21042;-79
2021/07/29 09:35:35;;;;;;;23.15;9.03;;;;;;;48.52;24.54;100533.05;1574616;91;21671;-81
2021/07/29 09:38:07;;;;;;;17.55;8.13;;;;;;;48.13;24.49;100529.68;1574599;91;21197;-80
2021/07/29 09:40:49;;;;;;;22.35;8.45;;;;;;;48.11;24.98;100527.19;1574754;91;21118;-78
2021/07/29 09:43:24;;;;;;;21.87;7.87;;;;;;;47.93;25.31;100519.31;1574834;91;21181;-80
2021/07/29 09:45:53;;;;;;;17.77;7.30;;;;;;;48.04;25.55;100521.38;1574691;91;22148;-80
2021/07/29 09:48:22;;;;;;;23.18;7.75;;;;;;;48.12;24.88;100520.16;1574851;91;21105;-78
2021/07/29 09:50:54;;;;;;;24.02;8.30;;;;;;;47.94;24.84;100515.14;1574727;91;21102;-81
2021/07/29 09:53:22;;;;;;;19.82;8.20;;;;;;;47.85;25.35;100514.00;1501866;95;21052;-81
2021/07/29 09:55:49;;;;;;;23.77;8.10;;;;;;;47.51;25.40;100514.70;1501793;95;22050;-80
2021/07/29 09:58:15;;;;;;;18.70;7.80;;;;;;;47.23;25.56;100514.02;1505672;93;21302;-79
2021/07/29 10:00:41;;;;;;;21.80;7.70;;;;;;;47.18;25.56;100510.52;1513116;94;21103;-90
2021/07/29 10:03:09;;;;;;;20.92;7.97;;;;;;;47.05;26.14;100511.04;1513166;94;21097;-78
2021/07/29 10:05:52;;;;;;;15.30;7.47;;;;;;;46.80;25.95;100504.87;1518002;94;21131;-81
2021/07/29 10:08:35;;;;;;;20.05;7.58;;;;;;;46.51;26.55;100506.06;1533167;91;21242;-81
2021/07/29 10:11:07;;;;;;;24.75;8.00;;;;;;;46.10;26.66;100500.72;1555974;91;21073;-80
2021/07/29 10:13:35;;;;;;;23.75;8.23;;;;;;;45.90;26.37;100499.56;1555987;91;21113;-80
2021/07/29 10:16:01;;;;;;;19.12;8.30;;;;;;;45.87;27.16;100503.41;1543595;90;21196;-80
2021/07/29 10:18:49;;;;;;;25.37;7.90;;;;;;;45.68;26.85;100503.66;1516871;93;20952;-80
2021/07/29 10:21:26;;;;;;;24.57;8.30;;;;;;;45.50;26.93;100503.39;1532127;92;21398;-80
2021/07/29 10:23:56;;;;;;;15.88;7.60;;;;;;;45.24;27.91;100489.20;1546951;91;21073;-82
2021/07/29 10:26:22;;;;;;;20.68;7.92;;;;;;;45.18;27.55;100491.22;1574879;90;21619;-80
2021/07/29 10:28:49;;;;;;;27.45;8.10;;;;;;;44.76;28.07;100491.20;1575084;91;21153;-79
2021/07/29 10:31:18;;;;;;;20.90;8.73;;;;;;;44.69;28.58;100483.09;1575072;91;21062;-80
2021/07/29 10:33:46;;;;;;;28.32;8.28;;;;;;;44.57;28.61;100485.03;1554592;91;21202;-80
2021/07/29 10:36:45;;;;;;;24.90;8.70;;;;;;;44.40;29.21;100483.41;1574843;91;21081;-81
2021/07/29 10:39:12;;;;;;;28.15;8.10;;;;;;;44.61;29.36;100480.67;1575169;91;21196;-80
2021/07/29 10:41:45;;;;;;;22.93;8.33;;;;;;;44.25;29.52;100472.73;1574985;91;21061;-80
2021/07/29 10:44:37;;;;;;;23.35;8.50;;;;;;;44.03;30.35;100464.05;1575297;91;21069;-80
2021/07/29 10:47:07;;;;;;;19.20;7.35;;;;;;;44.03;30.35;100464.05;1574994;91;21146;-79
2021/07/29 10:50:00;;;;;;;24.90;7.87;;;;;;;44.11;31.11;100455.90;1585879;88;21086;-80
2021/07/29 10:52:29;;;;;;;22.65;7.67;;;;;;;44.00;30.80;100455.11;1626023;88;21120;-80
2021/07/29 10:54:57;;;;;;;32.83;8.08;;;;;;;44.09;31.42;100450.70;1625712;88;21023;-81
2021/07/29 10:57:24;;;;;;;23.65;8.23;;;;;;;44.02;31.67;100439.77;1625775;88;21122;-80
2021/07/29 10:59:53;;;;;;;27.32;7.78;;;;;;;43.75;31.53;100438.10;1625464;88;21191;-80
2021/07/29 11:02:38;;;;;;;30.30;7.92;;;;;;;43.91;31.57;100423.97;1625767;88;21639;-79
2021/07/29 11:05:04;;;;;;;20.65;8.58;;;;;;;43.90;31.66;100410.41;1625257;88;21090;-79
2021/07/29 11:07:31;;;;;;;23.47;8.60;;;;;;;43.65;31.26;100404.78;1667468;83;21061;-80
2021/07/29 11:10:18;;;;;;;17.27;7.37;;;;;;;43.48;31.24;100405.17;1730574;82;21074;-80
2021/07/29 11:12:47;;;;;;;20.25;7.37;;;;;;;43.37;31.17;100398.69;1730105;83;22000;-80
2021/07/29 11:15:13;;;;;;;19.07;8.20;;;;;;;42.96;31.31;100394.28;1730126;82;21026;-80
2021/07/29 11:17:39;;;;;;;33.40;8.13;;;;;;;42.46;31.40;100387.70;1725469;82;21046;-80
2021/07/29 11:20:08;;;;;;;26.48;7.60;;;;;;;41.92;32.31;100381.98;1725684;83;20887;-80
2021/07/29 11:22:48;;;;;;;24.25;7.75;;;;;;;41.44;33.06;100369.94;1728471;82;20995;-80
2021/07/29 11:25:15;;;;;;;24.20;7.83;;;;;;;41.08;33.17;100365.25;1740416;82;21164;-80